Time;durP1;ratioP1;P1;durP2;ratioP2;P2;SDS_P1;SDS_P2;PMS_P1;PMS_P2;Temp;Humidity;BMP_temperature;BMP_pressure;BME280_temperature;BME280_humidity;BME280_pressure;Samples;Min_cycle;Max_cycle;Signal;HPM_P1;HPM_P2
2021/04/06 00:01:54;;;;;;;;;;;;;;;4.41;71.03;99873.95;1772830;80;20209;-58
2021/04/06 00:05:00;;;;;;;;;;;;;;;4.38;70.95;99882.39;1771654;80;20209;-57
2021/04/06 00:08:05;;;;;;;;;;;;;;;4.34;70.84;99873.36;1771832;80;20194;-57
2021/04/06 00:11:11;;;;;;;;;;;;;;;4.30;70.76;99872.80;1772232;80;20241;-57
2021/04/06 00:14:16;;;;;;;;;;;;;;;4.26;70.61;99874.59;1771383;80;20237;-57
2021/04/06 00:17:20;;;;;;;;;;;;;;;4.22;70.50;99869.97;1771661;80;20206;-57
2021/04/06 00:20:27;;;;;;;;;;;;;;;4.20;70.37;99865.72;1782992;80;20194;-57
2021/04/06 00:23:32;;;;;;;;;;;;;;;4.16;70.30;99866.51;1771368;80;20232;-57
2021/04/06 00:26:55;;;;;;;;;;;;;;;4.15;70.32;99874.30;1784317;80;20282;-57
2021/04/06 00:30:04;;;;;;;;;;;;;;;4.16;70.31;99870.57;1771934;80;20209;-57
2021/04/06 00:33:17;;;;;;;;;;;;;;;4.18;70.36;99876.70;1770620;80;20273;-57
2021/04/06 00:36:21;;;;;;;;;;;;;;;4.21;70.35;99866.06;1771711;81;20217;-58
2021/04/06 00:39:33;;;;;;;;;;;;;;;4.22;70.25;99864.55;1784870;80;20356;-57
2021/04/06 00:42:37;;;;;;;;;;;;;;;4.23;70.21;99865.42;1771878;81;20236;-57
2021/04/06 00:45:44;;;;;;;;;;;;;;;4.22;70.15;99857.78;1772006;81;20222;-57
2021/04/06 00:48:51;;;;;;;;;;;;;;;4.18;70.04;99856.39;1771647;81;20269;-57
2021/04/06 00:51:57;;;;;;;;;;;;;;;4.13;69.95;99855.97;1784570;80;20311;-57
2021/04/06 00:55:03;;;;;;;;;;;;;;;4.10;70.02;99857.63;1771853;81;20216;-57
2021/04/06 00:58:06;;;;;;;;;;;;;;;4.09;70.05;99858.61;1771870;81;20198;-57
2021/04/06 01:01:11;;;;;;;;;;;;;;;4.06;70.02;99858.91;1771775;81;20217;-57
2021/04/06 01:04:25;;;;;;;;;;;;;;;4.02;70.11;99858.86;1771625;81;20198;-57
2021/04/06 01:07:30;;;;;;;;;;;;;;;4.00;70.12;99859.50;1771939;81;20205;-57
2021/04/06 01:10:35;;;;;;;;;;;;;;;3.95;70.22;99861.79;1771930;81;20213;-57
2021/04/06 01:13:43;;;;;;;;;;;;;;;3.92;70.27;99847.69;1784491;80;20249;-57
2021/04/06 01:16:49;;;;;;;;;;;;;;;3.90;70.24;99849.71;1771571;81;20287;-57
2021/04/06 01:19:52;;;;;;;;;;;;;;;3.87;70.22;99846.78;1762602;80;20215;-57
2021/04/06 01:23:00;;;;;;;;;;;;;;;3.88;70.27;99851.70;1762629;80;20274;-57
2021/04/06 01:26:04;;;;;;;;;;;;;;;3.87;70.34;99844.07;1761068;81;20263;-57
2021/04/06 01:29:12;;;;;;;;;;;;;;;3.84;70.30;99843.02;1763427;80;20267;-57
2021/04/06 01:32:15;;;;;;;;;;;;;;;3.84;70.31;99837.59;1762357;80;20617;-57
2021/04/06 01:35:22;;;;;;;;;;;;;;;3.81;70.21;99836.55;1775156;81;20203;-57
2021/04/06 01:38:27;;;;;;;;;;;;;;;3.80;70.33;99840.27;1775238;80;20318;-57
2021/04/06 01:41:31;;;;;;;;;;;;;;;3.82;70.40;99831.47;1775088;81;20279;-57
2021/04/06 01:44:38;;;;;;;;;;;;;;;3.79;70.41;99832.29;1775187;80;20279;-57
2021/04/06 01:47:42;;;;;;;;;;;;;;;3.79;70.50;99827.70;1775194;81;20291;-57
2021/04/06 01:50:49;;;;;;;;;;;;;;;3.79;70.51;99822.29;1775233;81;20576;-57
2021/04/06 01:53:55;;;;;;;;;;;;;;;3.74;70.30;99834.58;1774945;80;20376;-57
2021/04/06 01:57:05;;;;;;;;;;;;;;;3.70;70.43;99846.19;1774489;81;20243;-57
2021/04/06 02:00:16;;;;;;;;;;;;;;;3.66;70.46;99843.44;1774815;81;20231;-57
2021/04/06 02:03:16;;;;;;;;;;;;;;;3.62;70.45;99846.05;1774419;80;20219;-57
2021/04/06 02:06:21;;;;;;;;;;;;;;;3.60;70.45;99840.45;1774421;81;20294;-57
2021/04/06 02:09:26;;;;;;;;;;;;;;;3.56;70.41;99834.95;1774472;81;20279;-57
2021/04/06 02:12:32;;;;;;;;;;;;;;;3.52;70.49;99831.67;1775001;81;20216;-56
2021/04/06 02:15:38;;;;;;;;;;;;;;;3.52;70.60;99837.61;1774650;81;20299;-56
2021/04/06 02:18:42;;;;;;;;;;;;;;;3.50;70.61;99840.95;1775076;80;20212;-56
2021/04/06 02:22:05;;;;;;;;;;;;;;;3.45;70.65;99834.63;1775124;81;20208;-56
2021/04/06 02:25:08;;;;;;;;;;;;;;;3.43;70.80;99837.97;1775153;81;20294;-57
2021/04/06 02:28:12;;;;;;;;;;;;;;;3.45;71.05;99836.47;1775151;80;20278;-57
2021/04/06 02:31:16;;;;;;;;;;;;;;;3.47;71.41;99835.34;1775359;81;20212;-57
2021/04/06 02:34:19;;;;;;;;;;;;;;;3.49;71.63;99836.03;1753351;79;20290;-57
2021/04/06 02:37:29;;;;;;;;;;;;;;;3.52;71.82;99828.97;1732924;83;20291;-57
2021/04/06 02:40:33;;;;;;;;;;;;;;;3.56;71.91;99824.13;1732986;83;20293;-60
2021/04/06 02:43:58;;;;;;;;;;;;;;;3.58;72.02;99825.72;1733016;83;20317;-57
2021/04/06 02:47:03;;;;;;;;;;;;;;;3.59;72.08;99827.41;1732950;83;20214;-57
2021/04/06 02:50:06;;;;;;;;;;;;;;;3.62;72.11;99835.23;1733019;83;20282;-57
2021/04/06 02:53:15;;;;;;;;;;;;;;;3.64;72.13;99833.25;1733201;83;20309;-57
2021/04/06 02:56:19;;;;;;;;;;;;;;;3.62;72.15;99833.87;1732941;83;20285;-57
2021/04/06 02:59:28;;;;;;;;;;;;;;;3.57;72.31;99833.45;1732784;83;20279;-58
2021/04/06 03:02:33;;;;;;;;;;;;;;;3.54;72.43;99828.34;1733164;83;20282;-54
2021/04/06 03:05:41;;;;;;;;;;;;;;;3.49;72.60;99830.63;1732464;83;20214;-55
2021/04/06 03:08:46;;;;;;;;;;;;;;;3.47;72.81;99829.94;1729905;83;20258;-55
2021/04/06 03:11:54;;;;;;;;;;;;;;;3.46;72.96;99830.05;1732621;83;20206;-55
2021/04/06 03:14:57;;;;;;;;;;;;;;;3.47;73.02;99829.06;1732973;83;20281;-55
2021/04/06 03:18:02;;;;;;;;;;;;;;;3.46;73.15;99829.56;1733359;83;20326;-55
2021/04/06 03:21:10;;;;;;;;;;;;;;;3.51;73.31;99827.28;1714384;83;20313;-54
2021/04/06 03:24:14;;;;;;;;;;;;;;;3.58;73.28;99831.13;1732986;83;20294;-55
2021/04/06 03:27:17;;;;;;;;;;;;;;;3.62;73.25;99822.19;1730289;82;20222;-54
2021/04/06 03:30:32;;;;;;;;;;;;;;;3.68;73.20;99836.00;1733256;83;20253;-54
2021/04/06 03:33:38;;;;;;;;;;;;;;;3.71;73.12;99821.34;1733459;83;20210;-54
2021/04/06 03:36:42;;;;;;;;;;;;;;;3.76;73.06;99819.05;1739889;82;20558;-54
2021/04/06 03:39:48;;;;;;;;;;;;;;;3.80;73.01;99815.91;1740005;82;20202;-55
2021/04/06 03:42:51;;;;;;;;;;;;;;;3.84;72.98;99817.30;1732321;82;20249;-54
2021/04/06 03:46:04;;;;;;;;;;;;;;;3.89;72.98;99815.01;1739799;82;20281;-55
2021/04/06 03:49:27;;;;;;;;;;;;;;;3.94;72.92;99813.20;1739682;82;20261;-55
2021/04/06 03:52:32;;;;;;;;;;;;;;;3.95;72.89;99814.90;1739904;82;20218;-54
2021/04/06 03:55:35;;;;;;;;;;;;;;;3.99;72.92;99819.03;1739943;82;20202;-54
2021/04/06 03:58:45;;;;;;;;;;;;;;;4.01;73.08;99815.16;1740035;82;20198;-54
2021/04/06 04:01:48;;;;;;;;;;;;;;;4.06;73.11;99818.28;1739803;82;20222;-55
2021/04/06 04:04:51;;;;;;;;;;;;;;;4.11;73.17;99818.70;1739916;82;20258;-54
2021/04/06 04:07:56;;;;;;;;;;;;;;;4.17;73.29;99816.73;1739794;82;20538;-54
2021/04/06 04:11:03;;;;;;;;;;;;;;;4.22;73.30;99817.16;1739964;82;20289;-54
2021/04/06 04:14:08;;;;;;;;;;;;;;;4.28;73.41;99821.97;1739532;82;20209;-55
2021/04/06 04:17:12;;;;;;;;;;;;;;;4.36;73.52;99816.66;1739746;82;20622;-55
2021/04/06 04:20:21;;;;;;;;;;;;;;;4.45;73.63;99818.97;1740012;82;20277;-55
2021/04/06 04:23:26;;;;;;;;;;;;;;;4.50;73.70;99805.83;1739993;82;20214;-55
2021/04/06 04:26:32;;;;;;;;;;;;;;;4.57;73.81;99813.19;1740018;82;20301;-56
2021/04/06 04:29:36;;;;;;;;;;;;;;;4.65;73.95;99814.30;1739767;82;20198;-55
2021/04/06 04:32:42;;;;;;;;;;;;;;;4.71;73.99;99809.63;1740255;82;20281;-56
2021/04/06 04:35:45;;;;;;;;;;;;;;;4.76;74.08;99812.73;1749372;80;20262;-55
2021/04/06 04:38:49;;;;;;;;;;;;;;;4.78;74.28;99814.27;1775429;81;20310;-56
2021/04/06 04:41:52;;;;;;;;;;;;;;;4.84;74.49;99809.58;1783045;79;20243;-55
2021/04/06 04:44:57;;;;;;;;;;;;;;;4.89;74.69;99810.47;1782023;79;20214;-56
2021/04/06 04:48:01;;;;;;;;;;;;;;;4.99;74.86;99818.05;1780658;79;20570;-55
2021/04/06 04:51:04;;;;;;;;;;;;;;;5.11;74.97;99817.66;1770828;81;20252;-55
2021/04/06 04:54:08;;;;;;;;;;;;;;;5.24;74.94;99822.69;1771121;81;20571;-55
2021/04/06 04:57:14;;;;;;;;;;;;;;;5.36;75.02;99835.86;1776826;79;20206;-55
2021/04/06 05:00:19;;;;;;;;;;;;;;;5.52;74.97;99834.64;1772446;79;20382;-56
2021/04/06 05:03:24;;;;;;;;;;;;;;;5.67;74.79;99834.94;1779776;79;20553;-56
2021/04/06 05:06:27;;;;;;;;;;;;;;;5.79;74.65;99830.44;1799879;79;20205;-54
2021/04/06 05:09:33;;;;;;;;;;;;;;;5.90;74.55;99822.06;1786211;79;20201;-54
2021/04/06 05:12:38;;;;;;;;;;;;;;;6.04;74.53;99813.84;1777477;79;20237;-54
2021/04/06 05:15:43;;;;;;;;;;;;;;;6.22;74.33;99817.32;1784308;79;20213;-55
2021/04/06 05:18:48;;;;;;;;;;;;;;;6.38;74.01;99817.41;1800533;79;20221;-54
2021/04/06 05:21:54;;;;;;;;;;;;;;;6.52;73.70;99817.28;1800374;79;20512;-54
2021/04/06 05:24:58;;;;;;;;;;;;;;;6.63;73.35;99811.58;1805527;79;20873;-53
2021/04/06 05:28:04;;;;;;;;;;;;;;;6.73;73.10;99807.69;1806153;79;20454;-52
2021/04/06 05:31:10;;;;;;;;;;;;;;;6.84;72.76;99809.23;1798518;79;20201;-54
2021/04/06 05:34:15;;;;;;;;;;;;;;;6.94;72.49;99805.87;1781273;79;20313;-51
2021/04/06 05:37:19;;;;;;;;;;;;;;;7.02;72.10;99808.11;1783146;79;20281;-53
2021/04/06 05:40:24;;;;;;;;;;;;;;;7.11;71.88;99813.03;1771234;81;20293;-53
2021/04/06 05:43:29;;;;;;;;;;;;;;;7.19;71.69;99807.11;1772154;79;20217;-53
2021/04/06 05:46:38;;;;;;;;;;;;;;;7.29;71.31;99818.66;1806198;79;20312;-52
2021/04/06 05:49:42;;;;;;;;;;;;;;;7.32;71.25;99807.47;1793157;79;20305;-55
2021/04/06 05:52:46;;;;;;;;;;;;;;;7.38;71.03;99809.50;1787249;79;20322;-54
2021/04/06 05:55:50;;;;;;;;;;;;;;;7.42;70.96;99809.49;1794836;79;20265;-54
2021/04/06 05:58:58;;;;;;;;;;;;;;;7.52;70.92;99813.41;1774071;81;20286;-53
2021/04/06 06:02:04;;;;;;;;;;;;;;;7.62;70.76;99820.91;1772453;81;20574;-54
2021/04/06 06:05:08;;;;;;;;;;;;;;;7.71;70.69;99819.87;1796516;79;20304;-52
2021/04/06 06:08:19;;;;;;;;;;;;;;;7.80;70.34;99821.55;1770715;81;20229;-54
2021/04/06 06:11:25;;;;;;;;;;;;;;;7.90;70.16;99820.88;1771214;81;20213;-54
2021/04/06 06:14:36;;;;;;;;;;;;;;;8.01;69.66;99815.59;1772766;79;20242;-52
2021/04/06 06:17:41;;;;;;;;;;;;;;;8.11;68.94;99821.19;1793614;79;20194;-54
2021/04/06 06:20:45;;;;;;;;;;;;;;;8.16;68.50;99822.02;1772478;81;20264;-53
2021/04/06 06:23:50;;;;;;;;;;;;;;;8.25;68.40;99820.99;1808657;79;20346;-54
2021/04/06 06:26:56;;;;;;;;;;;;;;;8.38;68.23;99819.44;1774849;81;20211;-54
2021/04/06 06:30:01;;;;;;;;;;;;;;;8.54;67.87;99819.38;1773694;80;20323;-53
2021/04/06 06:33:35;;;;;;;;;;;;;;;8.65;67.23;99818.13;1775068;80;20298;-53
2021/04/06 06:36:43;;;;;;;;;;;;;;;8.77;66.74;99819.42;1791713;79;20568;-53
2021/04/06 06:40:03;;;;;;;;;;;;;;;8.95;66.37;99824.12;1741651;81;20232;-53
2021/04/06 06:43:08;;;;;;;;;;;;;;;9.10;65.83;99820.97;1738778;82;20217;-53
2021/04/06 06:46:16;;;;;;;;;;;;;;;9.21;64.86;99817.83;1756401;81;20278;-54
2021/04/06 06:49:23;;;;;;;;;;;;;;;9.28;64.06;99821.52;1761189;80;20215;-53
2021/04/06 06:52:34;;;;;;;;;;;;;;;9.33;64.01;99807.31;1757144;80;20211;-54
2021/04/06 06:55:39;;;;;;;;;;;;;;;9.44;63.65;99813.71;1757657;81;20263;-54
2021/04/06 06:58:46;;;;;;;;;;;;;;;9.51;63.07;99826.48;1762191;81;20630;-55
2021/04/06 07:01:50;;;;;;;;;;;;;;;9.57;62.45;99817.55;1738343;81;20491;-54
2021/04/06 07:04:54;;;;;;;;;;;;;;;9.62;61.85;99811.53;1746920;81;20208;-54
2021/04/06 07:08:12;;;;;;;;;;;;;;;9.71;61.33;99822.20;1754654;80;20274;-53
2021/04/06 07:11:18;;;;;;;;;;;;;;;9.79;60.78;99818.04;1704471;82;20286;-55
2021/04/06 07:14:24;;;;;;;;;;;;;;;9.87;60.83;99826.16;1752293;80;20266;-54
2021/04/06 07:17:27;;;;;;;;;;;;;;;9.93;60.92;99813.11;1741700;80;20221;-54
2021/04/06 07:20:32;;;;;;;;;;;;;;;10.04;60.57;99818.13;1739110;82;20558;-54
2021/04/06 07:23:43;;;;;;;;;;;;;;;10.13;60.18;99821.68;1739030;82;20222;-54
2021/04/06 07:26:50;;;;;;;;;;;;;;;10.17;59.43;99818.37;1768421;81;20212;-54
2021/04/06 07:29:55;;;;;;;;;;;;;;;10.16;59.07;99824.03;1767862;81;20231;-54
2021/04/06 07:33:00;;;;;;;;;;;;;;;10.15;58.83;99826.42;1764624;81;20219;-53
2021/04/06 07:36:10;;;;;;;;;;;;;;;10.19;58.55;99816.31;1768621;81;20203;-53
2021/04/06 07:39:17;;;;;;;;;;;;;;;10.26;58.48;99823.22;1782592;79;20469;-54
2021/04/06 07:42:22;;;;;;;;;;;;;;;10.36;58.22;99827.91;1797008;79;20214;-53
2021/04/06 07:45:33;;;;;;;;;;;;;;;10.44;57.45;99818.24;1790740;79;20292;-54
2021/04/06 07:48:56;;;;;;;;;;;;;;;10.46;57.50;99821.11;1770050;79;20556;-53
2021/04/06 07:52:02;;;;;;;;;;;;;;;10.54;57.76;99825.13;1792675;79;20285;-53
2021/04/06 07:55:09;;;;;;;;;;;;;;;10.69;56.94;99828.40;1792593;79;20276;-53
2021/04/06 07:58:13;;;;;;;;;;;;;;;10.76;56.08;99834.28;1797148;78;20209;-54
2021/04/06 08:01:18;;;;;;;;;;;;;;;10.74;56.02;99829.51;1771483;79;20237;-55
2021/04/06 08:04:23;;;;;;;;;;;;;;;10.79;55.63;99843.98;1781716;79;20211;-54
2021/04/06 08:07:32;;;;;;;;;;;;;;;10.83;55.14;99818.77;1777177;79;20216;-53
2021/04/06 08:10:40;;;;;;;;;;;;;;;10.87;55.16;99832.94;1782947;79;20240;-54
2021/04/06 08:13:47;;;;;;;;;;;;;;;10.91;54.66;99838.38;1776777;79;20185;-53
2021/04/06 08:16:51;;;;;;;;;;;;;;;10.91;54.24;99839.20;1787297;79;20310;-54
2021/04/06 08:19:58;;;;;;;;;;;;;;;10.88;54.05;99846.43;1774334;79;20211;-54
2021/04/06 08:23:10;;;;;;;;;;;;;;;10.94;54.33;99851.68;1785040;79;20617;-53
2021/04/06 08:26:33;;;;;;;;;;;;;;;11.08;54.23;99847.55;1800304;79;20253;-53
2021/04/06 08:29:36;;;;;;;;;;;;;;;11.24;54.24;99858.80;1789375;79;20300;-54
2021/04/06 08:32:41;;;;;;;;;;;;;;;11.27;53.46;99858.41;1805765;79;20347;-53
2021/04/06 08:35:57;;;;;;;;;;;;;;;11.20;53.31;99843.77;1788169;79;20308;-53
2021/04/06 08:39:04;;;;;;;;;;;;;;;11.20;54.00;99849.25;1774327;79;20209;-52
2021/04/06 08:42:14;;;;;;;;;;;;;;;11.21;53.79;99844.12;1797588;80;20645;-53
2021/04/06 08:45:20;;;;;;;;;;;;;;;11.28;53.17;99836.81;1801098;80;20631;-53
2021/04/06 08:48:49;;;;;;;;;;;;;;;11.37;52.95;99844.72;1777437;79;20558;-52
2021/04/06 08:51:57;;;;;;;;;;;;;;;11.38;52.65;99841.47;1797235;80;20217;-54
2021/04/06 08:55:03;;;;;;;;;;;;;;;11.33;52.21;99827.49;1786666;79;20198;-54
2021/04/06 08:58:08;;;;;;;;;;;;;;;11.42;52.49;99827.69;1765033;80;20217;-55
2021/04/06 09:01:14;;;;;;;;;;;;;;;11.45;52.45;99821.30;1772014;80;20297;-52
2021/04/06 09:04:20;;;;;;;;;;;;;;;11.55;51.91;99826.45;1791365;79;20204;-55
2021/04/06 09:07:33;;;;;;;;;;;;;;;11.67;52.82;99813.97;1796592;80;20205;-54
2021/04/06 09:10:45;;;;;;;;;;;;;;;11.92;51.50;99828.42;1801142;80;20197;-55
2021/04/06 09:13:53;;;;;;;;;;;;;;;12.17;50.94;99830.22;1800924;79;20193;-55
2021/04/06 09:16:58;;;;;;;;;;;;;;;12.43;50.66;99840.55;1795599;80;20209;-54
2021/04/06 09:20:03;;;;;;;;;;;;;;;12.62;49.63;99828.30;1704809;84;20230;-54
2021/04/06 09:23:07;;;;;;;;;;;;;;;12.74;49.58;99833.55;1787767;79;20248;-54
2021/04/06 09:26:12;;;;;;;;;;;;;;;12.92;49.08;99829.72;1777251;80;20616;-55
2021/04/06 09:29:20;;;;;;;;;;;;;;;13.00;47.97;99821.85;1801359;79;20623;-55
2021/04/06 09:32:27;;;;;;;;;;;;;;;13.02;47.27;99827.48;1801306;80;20174;-55
2021/04/06 09:35:33;;;;;;;;;;;;;;;13.02;47.13;99823.36;1801341;80;20209;-54
2021/04/06 09:38:43;;;;;;;;;;;;;;;13.08;46.85;99815.66;1795906;79;20284;-53
2021/04/06 09:41:51;;;;;;;;;;;;;;;13.09;46.61;99828.38;1802848;79;20354;-59
2021/04/06 09:44:58;;;;;;;;;;;;;;;13.04;46.70;99811.65;1806336;79;20245;-54
2021/04/06 09:48:04;;;;;;;;;;;;;;;13.10;46.39;99820.44;1804406;79;20418;-53
2021/04/06 09:51:10;;;;;;;;;;;;;;;13.20;45.92;99811.28;1806069;79;20296;-53
2021/04/06 09:54:15;;;;;;;;;;;;;;;13.30;45.91;99817.77;1806329;79;20225;-54
2021/04/06 09:57:20;;;;;;;;;;;;;;;13.37;46.48;99828.23;1806907;79;20280;-53
2021/04/06 10:00:26;;;;;;;;;;;;;;;13.48;46.31;99813.88;1794349;79;20216;-54
2021/04/06 10:03:32;;;;;;;;;;;;;;;13.66;46.09;99819.64;1794491;79;20255;-54
2021/04/06 10:06:49;;;;;;;;;;;;;;;13.80;45.94;99822.72;1783407;79;20208;-55
2021/04/06 10:10:00;;;;;;;;;;;;;;;13.80;45.61;99828.74;1805814;79;20276;-54
2021/04/06 10:13:08;;;;;;;;;;;;;;;13.70;45.51;99825.58;1806328;79;20626;-55
2021/04/06 10:16:20;;;;;;;;;;;;;;;13.63;46.17;99817.83;1788456;79;20197;-55
2021/04/06 10:19:29;;;;;;;;;;;;;;;13.82;46.40;99820.61;1795051;79;20303;-54
2021/04/06 10:22:36;;;;;;;;;;;;;;;13.95;46.24;99811.52;1800712;79;20609;-54
2021/04/06 10:25:46;;;;;;;;;;;;;;;14.03;46.15;99809.94;1805608;79;20206;-53
2021/04/06 10:28:50;;;;;;;;;;;;;;;14.14;45.88;99813.42;1805186;79;20244;-53
2021/04/06 10:32:00;;;;;;;;;;;;;;;14.11;45.36;99804.22;1806384;79;20276;-57
2021/04/06 10:35:34;;;;;;;;;;;;;;;14.07;45.82;99809.30;1806474;79;20405;-57
2021/04/06 10:38:41;;;;;;;;;;;;;;;14.07;45.87;99805.68;1805747;79;20292;-57
2021/04/06 10:41:46;;;;;;;;;;;;;;;14.02;45.63;99798.59;1777818;79;20292;-56
2021/04/06 10:44:50;;;;;;;;;;;;;;;14.02;45.42;99798.59;1750152;82;20216;-57
2021/04/06 10:48:00;;;;;;;;;;;;;;;14.01;45.20;99793.64;1744031;82;20247;-57
2021/04/06 10:51:07;;;;;;;;;;;;;;;13.99;45.09;99789.38;1735124;81;20216;-56
2021/04/06 10:54:19;;;;;;;;;;;;;;;13.99;45.11;99776.48;1733269;81;20209;-59
2021/04/06 10:57:27;;;;;;;;;;;;;;;13.99;44.47;99771.50;1741430;82;20214;-56
2021/04/06 11:00:34;;;;;;;;;;;;;;;13.99;44.33;99774.25;1745722;80;20314;-57
2021/04/06 11:03:49;;;;;;;;;;;;;;;14.00;44.76;99785.59;1745983;82;20220;-57
2021/04/06 11:06:57;;;;;;;;;;;;;;;14.04;44.99;99777.21;1743023;82;20841;-57
2021/04/06 11:10:00;;;;;;;;;;;;;;;14.15;45.17;99771.06;1743939;81;20438;-57
2021/04/06 11:13:05;;;;;;;;;;;;;;;14.24;44.84;99761.02;1738680;82;20207;-57
2021/04/06 11:16:09;;;;;;;;;;;;;;;14.23;44.61;99757.94;1736847;82;20239;-57
2021/04/06 11:19:16;;;;;;;;;;;;;;;14.15;44.47;99754.55;1730680;82;20486;-57
2021/04/06 11:22:22;;;;;;;;;;;;;;;14.08;44.79;99750.97;1740778;82;20248;-55
2021/04/06 11:25:28;;;;;;;;;;;;;;;14.07;45.21;99757.52;1700918;82;20576;-56
2021/04/06 11:28:34;;;;;;;;;;;;;;;14.14;44.59;99751.48;1691085;82;20212;-57
2021/04/06 11:31:40;;;;;;;;;;;;;;;14.20;44.24;99747.88;1719369;82;20214;-55
2021/04/06 11:34:43;;;;;;;;;;;;;;;14.21;44.38;99736.64;1752470;82;20244;-57
2021/04/06 11:37:48;;;;;;;;;;;;;;;14.26;44.79;99741.53;1752806;81;20284;-57
2021/04/06 11:40:51;;;;;;;;;;;;;;;14.42;45.20;99735.05;1741542;82;20230;-58
2021/04/06 11:43:57;;;;;;;;;;;;;;;14.61;44.67;99735.52;1680420;81;20212;-57
2021/04/06 11:47:01;;;;;;;;;;;;;;;14.66;44.67;99726.07;1757705;81;20494;-57
2021/04/06 11:50:06;;;;;;;;;;;;;;;14.59;44.58;99739.53;1754208;81;20221;-56
2021/04/06 11:53:12;;;;;;;;;;;;;;;14.41;44.36;99730.58;1738696;80;20247;-57
2021/04/06 11:56:16;;;;;;;;;;;;;;;14.17;44.40;99727.66;1743291;82;20283;-58
2021/04/06 11:59:21;;;;;;;;;;;;;;;13.94;45.30;99731.41;1747349;81;20208;-58
2021/04/06 12:02:24;;;;;;;;;;;;;;;13.82;46.03;99735.84;1739556;80;20296;-59
2021/04/06 12:05:29;;;;;;;;;;;;;;;13.68;46.43;99736.91;1719561;83;20547;-56
2021/04/06 12:08:35;;;;;;;;;;;;;;;13.48;46.03;99730.88;1741990;81;20205;-56
2021/04/06 12:11:39;;;;;;;;;;;;;;;13.33;46.25;99732.13;1756496;81;20218;-57
2021/04/06 12:14:48;;;;;;;;;;;;;;;13.24;46.54;99720.47;1738204;81;20474;-57
2021/04/06 12:17:52;;;;;;;;;;;;;;;13.28;47.05;99714.89;1743479;80;20223;-55
2021/04/06 12:20:57;;;;;;;;;;;;;;;13.34;46.96;99707.17;1761421;79;20245;-57
2021/04/06 12:24:02;;;;;;;;;;;;;;;13.37;47.18;99705.38;1744492;81;20200;-57
2021/04/06 12:27:11;;;;;;;;;;;;;;;13.36;47.00;99700.95;1737195;81;20252;-58
2021/04/06 12:30:20;;;;;;;;;;;;;;;13.31;46.73;99703.48;1710984;81;20234;-58
2021/04/06 12:33:24;;;;;;;;;;;;;;;13.30;46.83;99695.44;1754475;81;20640;-57
2021/04/06 12:36:29;;;;;;;;;;;;;;;13.31;46.95;99693.00;1722305;83;20226;-58
2021/04/06 12:39:38;;;;;;;;;;;;;;;13.39;46.94;99690.91;1722399;83;20670;-58
2021/04/06 12:42:45;;;;;;;;;;;;;;;13.51;46.92;99691.95;1746420;82;20216;-58
2021/04/06 12:45:49;;;;;;;;;;;;;;;13.69;46.37;99683.06;1762869;79;20651;-56
2021/04/06 12:48:56;;;;;;;;;;;;;;;13.83;45.74;99678.38;1763173;81;20316;-57
2021/04/06 12:52:00;;;;;;;;;;;;;;;13.88;45.43;99679.97;1761578;81;20334;-58
2021/04/06 12:55:06;;;;;;;;;;;;;;;13.84;45.63;99676.82;1755898;81;20216;-56
2021/04/06 12:58:11;;;;;;;;;;;;;;;13.73;44.79;99692.56;1747511;81;20314;-56
2021/04/06 13:01:16;;;;;;;;;;;;;;;13.58;44.59;99680.95;1753807;81;20286;-57
2021/04/06 13:04:21;;;;;;;;;;;;;;;13.46;44.49;99673.86;1748301;81;20251;-57
2021/04/06 13:07:27;;;;;;;;;;;;;;;13.47;44.88;99678.33;1755785;81;20232;-57
2021/04/06 13:10:33;;;;;;;;;;;;;;;13.59;44.46;99672.19;1758242;81;20227;-59
2021/04/06 13:13:37;;;;;;;;;;;;;;;13.74;43.97;99672.80;1752981;81;20204;-58
2021/04/06 13:16:42;;;;;;;;;;;;;;;13.85;43.62;99669.39;1714186;83;20252;-58
2021/04/06 13:19:47;;;;;;;;;;;;;;;13.96;43.63;99669.59;1687437;84;20216;-56
2021/04/06 13:22:54;;;;;;;;;;;;;;;14.05;43.43;99667.46;1753220;81;20212;-55
2021/04/06 13:26:00;;;;;;;;;;;;;;;14.11;43.09;99658.34;1709721;80;20231;-57
2021/04/06 13:29:07;;;;;;;;;;;;;;;14.11;42.45;99659.16;1740114;81;20549;-57
2021/04/06 13:32:13;;;;;;;;;;;;;;;14.16;42.01;99658.54;1759357;81;20266;-57
2021/04/06 13:35:22;;;;;;;;;;;;;;;14.26;41.32;99656.19;1734865;81;20393;-57
2021/04/06 13:38:28;;;;;;;;;;;;;;;14.43;40.10;99656.86;1757725;81;20212;-58
2021/04/06 13:41:34;;;;;;;;;;;;;;;14.64;39.79;99652.95;1752568;80;20633;-59
2021/04/06 13:44:39;;;;;;;;;;;;;;;14.84;39.60;99649.03;1754950;81;20620;-58
2021/04/06 13:47:42;;;;;;;;;;;;;;;14.97;39.07;99654.46;1774981;79;20548;-58
2021/04/06 13:50:47;;;;;;;;;;;;;;;15.01;39.05;99643.84;1763178;81;20204;-59
2021/04/06 13:53:51;;;;;;;;;;;;;;;15.03;38.81;99644.48;1757491;81;20232;-57
2021/04/06 13:56:56;;;;;;;;;;;;;;;15.05;38.15;99656.10;1756419;81;20199;-56
2021/04/06 14:00:03;;;;;;;;;;;;;;;15.04;38.04;99644.78;1735170;82;20206;-56
2021/04/06 14:03:13;;;;;;;;;;;;;;;15.00;38.08;99649.88;1724409;82;20542;-57
2021/04/06 14:06:20;;;;;;;;;;;;;;;14.95;38.33;99639.23;1714054;82;20218;-58
2021/04/06 14:09:27;;;;;;;;;;;;;;;14.85;38.50;99644.38;1718716;82;20210;-58
2021/04/06 14:12:34;;;;;;;;;;;;;;;14.74;38.09;99642.31;1707743;84;20219;-57
2021/04/06 14:15:42;;;;;;;;;;;;;;;14.61;38.13;99649.27;1729645;82;20297;-57
2021/04/06 14:18:47;;;;;;;;;;;;;;;14.61;38.26;99645.98;1711512;83;20576;-56
2021/04/06 14:21:53;;;;;;;;;;;;;;;14.67;38.14;99645.11;1727712;82;20256;-58
2021/04/06 14:24:59;;;;;;;;;;;;;;;14.65;38.47;99643.64;1717321;82;20216;-58
2021/04/06 14:28:05;;;;;;;;;;;;;;;14.79;38.64;99643.88;1736984;82;20626;-56
2021/04/06 14:31:10;;;;;;;;;;;;;;;14.84;38.42;99640.76;1740032;81;20602;-56
2021/04/06 14:34:14;;;;;;;;;;;;;;;14.78;38.57;99644.41;1721594;82;20235;-56
2021/04/06 14:37:18;;;;;;;;;;;;;;;14.68;38.21;99639.07;1736929;81;20225;-58
2021/04/06 14:40:26;;;;;;;;;;;;;;;14.59;38.01;99641.75;1726836;82;20209;-57
2021/04/06 14:43:40;;;;;;;;;;;;;;;14.50;38.17;99638.94;1734965;83;20218;-57
2021/04/06 14:46:44;;;;;;;;;;;;;;;14.42;38.05;99639.19;1736685;79;20577;-58
2021/04/06 14:49:49;;;;;;;;;;;;;;;14.39;38.40;99636.88;1735999;83;20316;-58
2021/04/06 14:52:57;;;;;;;;;;;;;;;14.46;38.65;99628.06;1736239;83;20213;-57
2021/04/06 14:56:01;;;;;;;;;;;;;;;14.50;38.69;99629.30;1725870;83;20218;-58
2021/04/06 14:59:04;;;;;;;;;;;;;;;14.39;38.47;99626.71;1735131;83;20226;-59
2021/04/06 15:02:13;;;;;;;;;;;;;;;14.34;38.84;99627.04;1735931;83;20628;-58
2021/04/06 15:05:17;;;;;;;;;;;;;;;14.31;38.87;99628.86;1736143;83;20210;-57
2021/04/06 15:08:21;;;;;;;;;;;;;;;14.26;39.02;99623.16;1736327;83;20265;-57
2021/04/06 15:11:26;;;;;;;;;;;;;;;14.19;38.75;99620.94;1736393;83;20210;-57
2021/04/06 15:14:33;;;;;;;;;;;;;;;14.04;38.52;99627.22;1736418;83;20233;-55
2021/04/06 15:17:38;;;;;;;;;;;;;;;13.91;38.74;99621.75;1736354;83;20206;-56
2021/04/06 15:20:46;;;;;;;;;;;;;;;14.07;38.71;99613.03;1735945;83;20221;-56
2021/04/06 15:23:50;;;;;;;;;;;;;;;14.26;38.74;99619.02;1735876;82;20202;-57
2021/04/06 15:26:55;;;;;;;;;;;;;;;14.22;38.67;99622.70;1739827;81;20597;-56
2021/04/06 15:29:58;;;;;;;;;;;;;;;14.15;39.01;99610.03;1716998;82;20240;-55
2021/04/06 15:33:07;;;;;;;;;;;;;;;14.07;39.04;99608.90;1762334;81;20495;-56
2021/04/06 15:36:16;;;;;;;;;;;;;;;13.99;39.27;99609.14;1739913;81;20502;-57
2021/04/06 15:39:19;;;;;;;;;;;;;;;14.41;39.04;99608.59;1715271;82;20298;-57
2021/04/06 15:42:22;;;;;;;;;;;;;;;14.46;39.09;99604.10;1714229;82;20218;-57
2021/04/06 15:45:30;;;;;;;;;;;;;;;14.25;39.32;99614.59;1714918;82;20660;-57
2021/04/06 15:48:35;;;;;;;;;;;;;;;14.08;39.64;99616.94;1724715;80;20245;-57
2021/04/06 15:51:45;;;;;;;;;;;;;;;14.25;39.74;99611.84;1732916;82;20213;-56
2021/04/06 15:54:52;;;;;;;;;;;;;;;14.60;39.39;99600.77;1737073;82;20229;-57
2021/04/06 15:57:57;;;;;;;;;;;;;;;14.82;39.08;99608.99;1738144;82;20218;-57
2021/04/06 16:01:01;;;;;;;;;;;;;;;14.70;38.97;99618.48;1805590;79;20303;-57
2021/04/06 16:04:08;;;;;;;;;;;;;;;14.52;39.06;99617.54;1806132;79;20269;-57
2021/04/06 16:07:12;;;;;;;;;;;;;;;14.22;39.42;99615.82;1806518;79;20309;-58
2021/04/06 16:10:19;;;;;;;;;;;;;;;13.91;39.83;99627.25;1806896;79;20272;-57
2021/04/06 16:13:24;;;;;;;;;;;;;;;13.62;40.37;99621.70;1805615;79;20205;-57
2021/04/06 16:16:32;;;;;;;;;;;;;;;13.35;40.96;99621.44;1806759;79;20280;-57